sensor_id;sensor_type;location;lat;lon;timestamp;P1;durP1;ratioP1;P2;durP2;ratioP2
3278;SDS011;1651;50.940;6.888;2023-08-21T00:01:41;8.37;;;7.67;;
3278;SDS011;1651;50.940;6.888;2023-08-21T00:04:07;8.27;;;7.10;;
3278;SDS011;1651;50.940;6.888;2023-08-21T00:06:34;8.10;;;7.30;;
3278;SDS011;1651;50.940;6.888;2023-08-21T00:09:01;9.60;;;7.63;;
3278;SDS011;1651;50.940;6.888;2023-08-21T00:11:27;8.60;;;7.50;;
3278;SDS011;1651;50.940;6.888;2023-08-21T00:13:53;8.43;;;7.47;;
3278;SDS011;1651;50.940;6.888;2023-08-21T00:16:19;9.60;;;7.67;;
3278;SDS011;1651;50.940;6.888;2023-08-21T00:21:17;10.93;;;9.83;;
3278;SDS011;1651;50.940;6.888;2023-08-21T00:23:42;8.37;;;7.47;;
3278;SDS011;1651;50.940;6.888;2023-08-21T00:26:08;11.37;;;8.10;;
3278;SDS011;1651;50.940;6.888;2023-08-21T00:28:34;10.07;;;8.43;;
3278;SDS011;1651;50.940;6.888;2023-08-21T00:31:04;7.50;;;6.80;;
3278;SDS011;1651;50.940;6.888;2023-08-21T00:33:30;7.10;;;5.20;;
3278;SDS011;1651;50.940;6.888;2023-08-21T00:35:56;6.33;;;5.83;;
3278;SDS011;1651;50.940;6.888;2023-08-21T00:38:22;8.73;;;7.93;;
3278;SDS011;1651;50.940;6.888;2023-08-21T00:40:48;9.60;;;8.00;;
3278;SDS011;1651;50.940;6.888;2023-08-21T00:43:14;8.30;;;7.50;;
3278;SDS011;1651;50.940;6.888;2023-08-21T00:45:41;9.53;;;7.30;;
3278;SDS011;1651;50.940;6.888;2023-08-21T00:48:08;9.87;;;6.43;;
3278;SDS011;1651;50.940;6.888;2023-08-21T00:50:34;6.80;;;5.50;;
3278;SDS011;1651;50.940;6.888;2023-08-21T00:53:00;8.20;;;7.07;;
3278;SDS011;1651;50.940;6.888;2023-08-21T00:55:28;10.03;;;5.97;;
3278;SDS011;1651;50.940;6.888;2023-08-21T00:57:55;9.33;;;6.97;;
3278;SDS011;1651;50.940;6.888;2023-08-21T01:00:23;8.07;;;6.03;;
3278;SDS011;1651;50.940;6.888;2023-08-21T01:02:49;7.60;;;5.93;;
3278;SDS011;1651;50.940;6.888;2023-08-21T01:05:17;8.73;;;6.00;;
3278;SDS011;1651;50.940;6.888;2023-08-21T01:08:02;8.90;;;5.90;;
3278;SDS011;1651;50.940;6.888;2023-08-21T01:15:30;7.60;;;6.87;;
3278;SDS011;1651;50.940;6.888;2023-08-21T01:17:56;9.43;;;6.20;;
3278;SDS011;1651;50.940;6.888;2023-08-21T01:20:23;7.33;;;6.00;;
3278;SDS011;1651;50.940;6.888;2023-08-21T01:22:50;8.60;;;6.00;;
3278;SDS011;1651;50.940;6.888;2023-08-21T01:25:16;8.37;;;7.47;;
3278;SDS011;1651;50.940;6.888;2023-08-21T01:27:43;7.80;;;6.90;;
3278;SDS011;1651;50.940;6.888;2023-08-21T01:30:10;9.33;;;6.77;;
3278;SDS011;1651;50.940;6.888;2023-08-21T01:32:45;7.27;;;6.30;;
3278;SDS011;1651;50.940;6.888;2023-08-21T01:35:14;13.23;;;6.83;;
3278;SDS011;1651;50.940;6.888;2023-08-21T01:37:40;6.50;;;5.63;;
3278;SDS011;1651;50.940;6.888;2023-08-21T01:40:06;10.93;;;7.00;;
3278;SDS011;1651;50.940;6.888;2023-08-21T01:42:32;8.60;;;5.90;;
3278;SDS011;1651;50.940;6.888;2023-08-21T01:44:58;7.20;;;6.30;;
3278;SDS011;1651;50.940;6.888;2023-08-21T01:47:24;7.90;;;5.90;;
3278;SDS011;1651;50.940;6.888;2023-08-21T01:49:50;11.43;;;6.53;;
3278;SDS011;1651;50.940;6.888;2023-08-21T01:52:20;6.43;;;5.20;;
3278;SDS011;1651;50.940;6.888;2023-08-21T01:55:10;7.67;;;5.03;;
3278;SDS011;1651;50.940;6.888;2023-08-21T01:57:39;4.97;;;4.57;;
3278;SDS011;1651;50.940;6.888;2023-08-21T02:00:05;8.27;;;6.63;;
3278;SDS011;1651;50.940;6.888;2023-08-21T02:02:32;6.37;;;5.77;;
3278;SDS011;1651;50.940;6.888;2023-08-21T02:04:58;6.90;;;4.90;;
3278;SDS011;1651;50.940;6.888;2023-08-21T02:07:24;6.63;;;5.30;;
3278;SDS011;1651;50.940;6.888;2023-08-21T02:09:52;8.30;;;5.43;;
3278;SDS011;1651;50.940;6.888;2023-08-21T02:12:18;8.10;;;5.27;;
3278;SDS011;1651;50.940;6.888;2023-08-21T02:14:44;6.60;;;4.73;;
3278;SDS011;1651;50.940;6.888;2023-08-21T02:17:10;8.93;;;4.50;;
3278;SDS011;1651;50.940;6.888;2023-08-21T02:19:36;6.53;;;5.40;;
3278;SDS011;1651;50.940;6.888;2023-08-21T02:22:02;7.10;;;5.20;;
3278;SDS011;1651;50.940;6.888;2023-08-21T02:24:28;5.80;;;5.17;;
3278;SDS011;1651;50.940;6.888;2023-08-21T02:26:54;6.33;;;4.90;;
3278;SDS011;1651;50.940;6.888;2023-08-21T02:29:20;6.80;;;5.00;;
3278;SDS011;1651;50.940;6.888;2023-08-21T02:31:46;4.50;;;3.60;;
3278;SDS011;1651;50.940;6.888;2023-08-21T02:34:12;6.30;;;5.60;;
3278;SDS011;1651;50.940;6.888;2023-08-21T02:36:38;9.37;;;5.07;;
3278;SDS011;1651;50.940;6.888;2023-08-21T02:39:04;12.07;;;6.77;;
3278;SDS011;1651;50.940;6.888;2023-08-21T02:41:30;6.77;;;4.90;;
3278;SDS011;1651;50.940;6.888;2023-08-21T02:43:56;5.57;;;5.00;;
3278;SDS011;1651;50.940;6.888;2023-08-21T02:46:22;6.10;;;4.60;;
3278;SDS011;1651;50.940;6.888;2023-08-21T02:48:48;5.70;;;4.70;;
3278;SDS011;1651;50.940;6.888;2023-08-21T02:51:14;6.27;;;4.40;;
3278;SDS011;1651;50.940;6.888;2023-08-21T02:53:40;6.17;;;3.97;;
3278;SDS011;1651;50.940;6.888;2023-08-21T02:56:06;6.67;;;3.40;;
3278;SDS011;1651;50.940;6.888;2023-08-21T02:58:32;6.13;;;3.50;;
3278;SDS011;1651;50.940;6.888;2023-08-21T03:00:58;5.10;;;4.40;;
3278;SDS011;1651;50.940;6.888;2023-08-21T03:03:24;5.83;;;5.17;;
3278;SDS011;1651;50.940;6.888;2023-08-21T03:05:50;4.20;;;3.63;;
3278;SDS011;1651;50.940;6.888;2023-08-21T03:08:16;6.20;;;5.60;;
3278;SDS011;1651;50.940;6.888;2023-08-21T03:10:42;5.37;;;4.20;;
3278;SDS011;1651;50.940;6.888;2023-08-21T03:13:08;5.30;;;4.50;;
3278;SDS011;1651;50.940;6.888;2023-08-21T03:15:34;3.83;;;3.43;;
3278;SDS011;1651;50.940;6.888;2023-08-21T03:18:00;7.90;;;4.87;;
3278;SDS011;1651;50.940;6.888;2023-08-21T03:20:26;7.00;;;4.13;;
3278;SDS011;1651;50.940;6.888;2023-08-21T03:22:52;11.97;;;4.93;;
3278;SDS011;1651;50.940;6.888;2023-08-21T03:25:18;6.43;;;4.87;;
3278;SDS011;1651;50.940;6.888;2023-08-21T03:27:44;6.63;;;4.13;;
3278;SDS011;1651;50.940;6.888;2023-08-21T03:30:14;8.60;;;5.43;;
3278;SDS011;1651;50.940;6.888;2023-08-21T03:32:40;9.93;;;5.07;;
3278;SDS011;1651;50.940;6.888;2023-08-21T03:35:06;6.17;;;4.27;;
3278;SDS011;1651;50.940;6.888;2023-08-21T03:37:32;5.93;;;4.80;;
3278;SDS011;1651;50.940;6.888;2023-08-21T03:39:58;6.50;;;4.67;;
3278;SDS011;1651;50.940;6.888;2023-08-21T03:42:24;10.03;;;4.43;;
3278;SDS011;1651;50.940;6.888;2023-08-21T03:44:50;6.90;;;4.30;;
3278;SDS011;1651;50.940;6.888;2023-08-21T03:47:16;7.40;;;4.10;;
3278;SDS011;1651;50.940;6.888;2023-08-21T03:49:42;5.93;;;4.70;;
3278;SDS011;1651;50.940;6.888;2023-08-21T03:52:08;9.43;;;3.20;;
3278;SDS011;1651;50.940;6.888;2023-08-21T03:54:34;5.50;;;3.67;;
3278;SDS011;1651;50.940;6.888;2023-08-21T03:57:00;7.40;;;3.47;;
3278;SDS011;1651;50.940;6.888;2023-08-21T03:59:26;7.10;;;3.93;;
3278;SDS011;1651;50.940;6.888;2023-08-21T04:01:55;8.60;;;3.80;;
3278;SDS011;1651;50.940;6.888;2023-08-21T04:04:21;6.80;;;3.70;;
3278;SDS011;1651;50.940;6.888;2023-08-21T04:06:47;7.00;;;4.50;;
3278;SDS011;1651;50.940;6.888;2023-08-21T04:09:13;6.50;;;5.27;;
3278;SDS011;1651;50.940;6.888;2023-08-21T04:11:42;3.97;;;3.17;;
3278;SDS011;1651;50.940;6.888;2023-08-21T04:14:08;5.87;;;3.23;;
3278;SDS011;1651;50.940;6.888;2023-08-21T04:16:33;6.63;;;4.10;;
3278;SDS011;1651;50.940;6.888;2023-08-21T04:18:59;6.10;;;4.17;;
3278;SDS011;1651;50.940;6.888;2023-08-21T04:21:25;6.70;;;4.00;;
3278;SDS011;1651;50.940;6.888;2023-08-21T04:23:51;4.53;;;3.80;;
3278;SDS011;1651;50.940;6.888;2023-08-21T04:26:18;5.17;;;3.90;;
3278;SDS011;1651;50.940;6.888;2023-08-21T04:28:46;11.37;;;4.30;;
3278;SDS011;1651;50.940;6.888;2023-08-21T04:31:12;9.83;;;4.07;;
3278;SDS011;1651;50.940;6.888;2023-08-21T04:33:38;4.87;;;4.20;;
3278;SDS011;1651;50.940;6.888;2023-08-21T04:36:05;5.23;;;4.07;;
3278;SDS011;1651;50.940;6.888;2023-08-21T04:38:31;8.47;;;4.40;;
3278;SDS011;1651;50.940;6.888;2023-08-21T04:41:05;4.97;;;3.77;;
3278;SDS011;1651;50.940;6.888;2023-08-21T04:43:31;4.87;;;4.10;;
3278;SDS011;1651;50.940;6.888;2023-08-21T04:45:57;6.87;;;4.23;;
3278;SDS011;1651;50.940;6.888;2023-08-21T04:48:23;4.07;;;3.77;;
3278;SDS011;1651;50.940;6.888;2023-08-21T04:50:54;6.67;;;3.90;;
3278;SDS011;1651;50.940;6.888;2023-08-21T04:53:21;6.73;;;4.47;;
3278;SDS011;1651;50.940;6.888;2023-08-21T04:55:48;7.00;;;4.00;;
3278;SDS011;1651;50.940;6.888;2023-08-21T04:58:14;8.60;;;5.17;;
3278;SDS011;1651;50.940;6.888;2023-08-21T05:00:44;5.10;;;4.43;;
3278;SDS011;1651;50.940;6.888;2023-08-21T05:03:12;9.03;;;4.67;;
3278;SDS011;1651;50.940;6.888;2023-08-21T05:05:38;9.77;;;4.90;;
3278;SDS011;1651;50.940;6.888;2023-08-21T05:08:05;11.60;;;4.70;;
3278;SDS011;1651;50.940;6.888;2023-08-21T05:10:31;8.33;;;4.37;;
3278;SDS011;1651;50.940;6.888;2023-08-21T05:12:57;5.23;;;3.90;;
3278;SDS011;1651;50.940;6.888;2023-08-21T05:15:23;6.87;;;4.60;;
3278;SDS011;1651;50.940;6.888;2023-08-21T05:17:49;7.93;;;4.53;;
3278;SDS011;1651;50.940;6.888;2023-08-21T05:20:15;5.53;;;4.40;;
3278;SDS011;1651;50.940;6.888;2023-08-21T05:22:42;6.90;;;5.27;;
3278;SDS011;1651;50.940;6.888;2023-08-21T05:25:08;7.53;;;5.30;;
3278;SDS011;1651;50.940;6.888;2023-08-21T05:27:34;6.80;;;4.90;;
3278;SDS011;1651;50.940;6.888;2023-08-21T05:30:03;6.93;;;4.70;;
3278;SDS011;1651;50.940;6.888;2023-08-21T05:32:29;9.23;;;5.00;;
3278;SDS011;1651;50.940;6.888;2023-08-21T05:34:55;6.23;;;5.30;;
3278;SDS011;1651;50.940;6.888;2023-08-21T05:37:21;9.30;;;4.63;;
3278;SDS011;1651;50.940;6.888;2023-08-21T05:39:49;7.40;;;4.47;;
3278;SDS011;1651;50.940;6.888;2023-08-21T05:42:18;9.40;;;4.70;;
3278;SDS011;1651;50.940;6.888;2023-08-21T05:44:44;6.37;;;4.90;;
3278;SDS011;1651;50.940;6.888;2023-08-21T05:47:13;8.37;;;4.73;;
3278;SDS011;1651;50.940;6.888;2023-08-21T05:49:48;9.90;;;4.77;;
3278;SDS011;1651;50.940;6.888;2023-08-21T05:52:14;7.40;;;4.77;;
3278;SDS011;1651;50.940;6.888;2023-08-21T05:54:40;10.20;;;5.00;;
3278;SDS011;1651;50.940;6.888;2023-08-21T05:57:06;7.10;;;5.10;;
3278;SDS011;1651;50.940;6.888;2023-08-21T05:59:33;6.73;;;5.30;;
3278;SDS011;1651;50.940;6.888;2023-08-21T06:02:00;7.93;;;4.67;;
3278;SDS011;1651;50.940;6.888;2023-08-21T06:04:26;6.00;;;4.23;;
3278;SDS011;1651;50.940;6.888;2023-08-21T06:06:52;10.87;;;4.60;;
3278;SDS011;1651;50.940;6.888;2023-08-21T06:09:19;9.53;;;5.37;;
3278;SDS011;1651;50.940;6.888;2023-08-21T06:11:45;8.40;;;5.07;;
3278;SDS011;1651;50.940;6.888;2023-08-21T06:14:12;9.50;;;4.20;;
3278;SDS011;1651;50.940;6.888;2023-08-21T06:16:38;9.43;;;4.50;;
3278;SDS011;1651;50.940;6.888;2023-08-21T06:19:04;5.63;;;4.40;;
3278;SDS011;1651;50.940;6.888;2023-08-21T06:21:30;6.33;;;4.70;;
3278;SDS011;1651;50.940;6.888;2023-08-21T06:23:56;6.50;;;4.93;;
3278;SDS011;1651;50.940;6.888;2023-08-21T06:26:22;8.73;;;3.70;;
3278;SDS011;1651;50.940;6.888;2023-08-21T06:28:50;6.67;;;3.87;;
3278;SDS011;1651;50.940;6.888;2023-08-21T06:31:17;4.60;;;4.10;;
3278;SDS011;1651;50.940;6.888;2023-08-21T06:33:43;7.33;;;3.77;;
3278;SDS011;1651;50.940;6.888;2023-08-21T06:36:09;7.10;;;3.57;;
3278;SDS011;1651;50.940;6.888;2023-08-21T06:38:35;3.60;;;3.30;;
3278;SDS011;1651;50.940;6.888;2023-08-21T06:41:01;3.73;;;3.20;;
3278;SDS011;1651;50.940;6.888;2023-08-21T06:43:28;9.70;;;3.63;;
3278;SDS011;1651;50.940;6.888;2023-08-21T06:45:54;4.83;;;3.33;;
3278;SDS011;1651;50.940;6.888;2023-08-21T06:48:20;3.70;;;3.00;;
3278;SDS011;1651;50.940;6.888;2023-08-21T06:50:46;4.03;;;3.00;;
3278;SDS011;1651;50.940;6.888;2023-08-21T06:53:14;4.53;;;3.90;;
3278;SDS011;1651;50.940;6.888;2023-08-21T06:55:40;5.60;;;4.27;;
3278;SDS011;1651;50.940;6.888;2023-08-21T06:58:06;5.60;;;3.70;;
3278;SDS011;1651;50.940;6.888;2023-08-21T07:00:32;6.27;;;2.80;;
3278;SDS011;1651;50.940;6.888;2023-08-21T07:02:58;6.70;;;3.40;;
3278;SDS011;1651;50.940;6.888;2023-08-21T07:05:24;5.03;;;3.13;;
3278;SDS011;1651;50.940;6.888;2023-08-21T07:07:50;4.20;;;3.80;;
3278;SDS011;1651;50.940;6.888;2023-08-21T07:10:16;3.80;;;3.47;;
3278;SDS011;1651;50.940;6.888;2023-08-21T07:12:42;8.93;;;4.40;;
3278;SDS011;1651;50.940;6.888;2023-08-21T07:15:08;7.10;;;3.20;;
3278;SDS011;1651;50.940;6.888;2023-08-21T07:17:34;3.93;;;3.57;;
3278;SDS011;1651;50.940;6.888;2023-08-21T07:20:00;4.20;;;3.33;;
3278;SDS011;1651;50.940;6.888;2023-08-21T07:22:26;4.47;;;3.83;;
3278;SDS011;1651;50.940;6.888;2023-08-21T07:24:52;4.10;;;3.60;;
3278;SDS011;1651;50.940;6.888;2023-08-21T07:27:18;5.40;;;3.70;;
3278;SDS011;1651;50.940;6.888;2023-08-21T07:29:44;6.27;;;3.70;;
3278;SDS011;1651;50.940;6.888;2023-08-21T07:32:10;7.07;;;4.30;;
3278;SDS011;1651;50.940;6.888;2023-08-21T07:34:36;6.57;;;4.00;;
3278;SDS011;1651;50.940;6.888;2023-08-21T07:37:02;4.20;;;3.80;;
3278;SDS011;1651;50.940;6.888;2023-08-21T07:39:28;4.93;;;3.87;;
3278;SDS011;1651;50.940;6.888;2023-08-21T07:41:54;5.37;;;4.30;;
3278;SDS011;1651;50.940;6.888;2023-08-21T07:44:20;5.80;;;4.10;;
3278;SDS011;1651;50.940;6.888;2023-08-21T07:46:46;5.97;;;4.00;;
3278;SDS011;1651;50.940;6.888;2023-08-21T07:49:12;5.50;;;4.30;;
3278;SDS011;1651;50.940;6.888;2023-08-21T07:51:39;4.43;;;3.83;;
3278;SDS011;1651;50.940;6.888;2023-08-21T07:54:05;4.93;;;4.30;;
3278;SDS011;1651;50.940;6.888;2023-08-21T07:56:31;4.73;;;3.93;;
3278;SDS011;1651;50.940;6.888;2023-08-21T07:58:58;5.73;;;4.10;;
3278;SDS011;1651;50.940;6.888;2023-08-21T08:01:24;7.43;;;4.20;;
3278;SDS011;1651;50.940;6.888;2023-08-21T08:03:49;6.27;;;3.97;;
3278;SDS011;1651;50.940;6.888;2023-08-21T08:06:15;4.63;;;3.63;;
3278;SDS011;1651;50.940;6.888;2023-08-21T08:08:41;6.73;;;4.60;;
3278;SDS011;1651;50.940;6.888;2023-08-21T08:11:07;5.97;;;4.22;;
3278;SDS011;1651;50.940;6.888;2023-08-21T08:13:34;5.30;;;4.28;;
3278;SDS011;1651;50.940;6.888;2023-08-21T08:16:00;6.40;;;4.15;;
3278;SDS011;1651;50.940;6.888;2023-08-21T08:18:26;7.85;;;4.28;;
3278;SDS011;1651;50.940;6.888;2023-08-21T08:20:53;5.20;;;4.65;;
3278;SDS011;1651;50.940;6.888;2023-08-21T08:23:20;7.32;;;4.60;;
3278;SDS011;1651;50.940;6.888;2023-08-21T08:25:48;3.90;;;3.60;;
3278;SDS011;1651;50.940;6.888;2023-08-21T08:28:14;6.27;;;4.17;;
3278;SDS011;1651;50.940;6.888;2023-08-21T08:30:40;5.40;;;4.90;;
3278;SDS011;1651;50.940;6.888;2023-08-21T08:33:06;8.30;;;5.77;;
3278;SDS011;1651;50.940;6.888;2023-08-21T08:35:31;4.47;;;4.10;;
3278;SDS011;1651;50.940;6.888;2023-08-21T08:37:57;6.30;;;5.37;;
3278;SDS011;1651;50.940;6.888;2023-08-21T08:40:23;8.10;;;4.67;;
3278;SDS011;1651;50.940;6.888;2023-08-21T08:42:49;6.70;;;4.40;;
3278;SDS011;1651;50.940;6.888;2023-08-21T08:45:15;5.10;;;4.30;;
3278;SDS011;1651;50.940;6.888;2023-08-21T08:47:44;10.93;;;4.47;;
3278;SDS011;1651;50.940;6.888;2023-08-21T08:50:11;5.10;;;4.47;;
3278;SDS011;1651;50.940;6.888;2023-08-21T08:52:39;4.93;;;4.33;;
3278;SDS011;1651;50.940;6.888;2023-08-21T08:55:06;6.90;;;4.70;;
3278;SDS011;1651;50.940;6.888;2023-08-21T08:57:32;5.30;;;4.77;;
3278;SDS011;1651;50.940;6.888;2023-08-21T08:59:59;8.27;;;4.27;;
3278;SDS011;1651;50.940;6.888;2023-08-21T09:02:25;6.00;;;5.10;;
3278;SDS011;1651;50.940;6.888;2023-08-21T09:04:51;6.37;;;4.50;;
3278;SDS011;1651;50.940;6.888;2023-08-21T09:07:17;5.00;;;3.90;;
3278;SDS011;1651;50.940;6.888;2023-08-21T09:09:47;9.57;;;5.93;;
3278;SDS011;1651;50.940;6.888;2023-08-21T09:12:18;7.07;;;5.60;;
3278;SDS011;1651;50.940;6.888;2023-08-21T09:14:44;7.43;;;3.90;;
3278;SDS011;1651;50.940;6.888;2023-08-21T09:17:11;10.33;;;6.20;;
3278;SDS011;1651;50.940;6.888;2023-08-21T09:19:40;11.23;;;5.23;;
3278;SDS011;1651;50.940;6.888;2023-08-21T09:22:16;5.47;;;4.93;;
3278;SDS011;1651;50.940;6.888;2023-08-21T09:27:31;7.33;;;5.03;;
3278;SDS011;1651;50.940;6.888;2023-08-21T09:29:58;8.37;;;5.60;;
3278;SDS011;1651;50.940;6.888;2023-08-21T09:32:24;6.03;;;4.47;;
3278;SDS011;1651;50.940;6.888;2023-08-21T09:34:50;8.97;;;6.00;;
3278;SDS011;1651;50.940;6.888;2023-08-21T09:37:16;6.77;;;4.50;;
3278;SDS011;1651;50.940;6.888;2023-08-21T09:39:43;7.70;;;4.60;;
3278;SDS011;1651;50.940;6.888;2023-08-21T09:42:10;6.70;;;5.03;;
3278;SDS011;1651;50.940;6.888;2023-08-21T09:44:37;7.57;;;4.93;;
3278;SDS011;1651;50.940;6.888;2023-08-21T09:47:03;13.67;;;5.53;;
3278;SDS011;1651;50.940;6.888;2023-08-21T09:49:32;9.47;;;5.53;;
3278;SDS011;1651;50.940;6.888;2023-08-21T09:51:58;6.67;;;4.60;;
3278;SDS011;1651;50.940;6.888;2023-08-21T09:54:25;7.97;;;4.63;;
3278;SDS011;1651;50.940;6.888;2023-08-21T09:56:52;8.33;;;5.80;;
3278;SDS011;1651;50.940;6.888;2023-08-21T09:59:19;8.53;;;6.53;;
3278;SDS011;1651;50.940;6.888;2023-08-21T10:01:45;13.57;;;6.20;;
3278;SDS011;1651;50.940;6.888;2023-08-21T10:04:12;10.87;;;6.93;;
3278;SDS011;1651;50.940;6.888;2023-08-21T10:06:40;7.40;;;6.47;;
3278;SDS011;1651;50.940;6.888;2023-08-21T10:09:06;11.23;;;6.70;;
3278;SDS011;1651;50.940;6.888;2023-08-21T10:11:34;12.00;;;6.53;;
3278;SDS011;1651;50.940;6.888;2023-08-21T10:14:00;12.93;;;7.20;;
3278;SDS011;1651;50.940;6.888;2023-08-21T10:16:26;10.20;;;7.23;;
3278;SDS011;1651;50.940;6.888;2023-08-21T10:18:52;12.83;;;6.90;;
3278;SDS011;1651;50.940;6.888;2023-08-21T10:21:27;13.60;;;9.40;;
3278;SDS011;1651;50.940;6.888;2023-08-21T10:24:02;11.30;;;8.03;;
3278;SDS011;1651;50.940;6.888;2023-08-21T10:26:37;12.40;;;8.70;;
3278;SDS011;1651;50.940;6.888;2023-08-21T10:29:03;17.50;;;8.50;;
3278;SDS011;1651;50.940;6.888;2023-08-21T10:31:33;14.50;;;9.10;;
3278;SDS011;1651;50.940;6.888;2023-08-21T10:39:30;14.83;;;9.90;;
3278;SDS011;1651;50.940;6.888;2023-08-21T10:47:41;12.77;;;9.83;;
3278;SDS011;1651;50.940;6.888;2023-08-21T10:50:23;13.07;;;10.03;;
3278;SDS011;1651;50.940;6.888;2023-08-21T10:52:52;13.17;;;9.00;;
3278;SDS011;1651;50.940;6.888;2023-08-21T10:55:21;12.17;;;8.87;;
3278;SDS011;1651;50.940;6.888;2023-08-21T10:57:49;13.27;;;9.17;;
3278;SDS011;1651;50.940;6.888;2023-08-21T11:00:16;12.50;;;8.90;;
3278;SDS011;1651;50.940;6.888;2023-08-21T11:02:43;13.90;;;10.00;;
3278;SDS011;1651;50.940;6.888;2023-08-21T11:05:09;14.70;;;9.67;;
3278;SDS011;1651;50.940;6.888;2023-08-21T11:07:37;12.50;;;9.70;;
3278;SDS011;1651;50.940;6.888;2023-08-21T11:10:03;14.10;;;10.67;;
3278;SDS011;1651;50.940;6.888;2023-08-21T11:12:30;12.70;;;10.00;;
3278;SDS011;1651;50.940;6.888;2023-08-21T11:14:56;12.43;;;10.50;;
3278;SDS011;1651;50.940;6.888;2023-08-21T11:17:22;10.93;;;9.60;;
3278;SDS011;1651;50.940;6.888;2023-08-21T11:19:48;13.00;;;11.10;;
3278;SDS011;1651;50.940;6.888;2023-08-21T11:22:16;12.17;;;10.80;;
3278;SDS011;1651;50.940;6.888;2023-08-21T11:24:46;14.00;;;11.60;;
3278;SDS011;1651;50.940;6.888;2023-08-21T11:27:16;18.13;;;12.83;;
3278;SDS011;1651;50.940;6.888;2023-08-21T11:29:44;20.60;;;12.70;;
3278;SDS011;1651;50.940;6.888;2023-08-21T11:32:12;10.00;;;9.00;;
3278;SDS011;1651;50.940;6.888;2023-08-21T11:34:39;17.33;;;10.80;;
3278;SDS011;1651;50.940;6.888;2023-08-21T11:37:06;11.97;;;10.73;;
3278;SDS011;1651;50.940;6.888;2023-08-21T11:39:39;15.03;;;9.87;;
3278;SDS011;1651;50.940;6.888;2023-08-21T11:42:08;11.07;;;9.97;;
3278;SDS011;1651;50.940;6.888;2023-08-21T11:44:39;14.57;;;9.93;;
3278;SDS011;1651;50.940;6.888;2023-08-21T11:47:05;10.63;;;8.20;;
3278;SDS011;1651;50.940;6.888;2023-08-21T11:49:31;13.17;;;9.77;;
3278;SDS011;1651;50.940;6.888;2023-08-21T11:51:57;14.40;;;11.20;;
3278;SDS011;1651;50.940;6.888;2023-08-21T11:54:23;16.00;;;10.33;;
3278;SDS011;1651;50.940;6.888;2023-08-21T11:56:49;12.50;;;8.93;;
3278;SDS011;1651;50.940;6.888;2023-08-21T11:59:22;14.40;;;8.73;;
3278;SDS011;1651;50.940;6.888;2023-08-21T12:01:51;9.80;;;7.90;;
3278;SDS011;1651;50.940;6.888;2023-08-21T12:04:17;8.60;;;7.30;;
3278;SDS011;1651;50.940;6.888;2023-08-21T12:06:44;8.43;;;7.63;;
3278;SDS011;1651;50.940;6.888;2023-08-21T12:09:10;10.77;;;7.07;;
3278;SDS011;1651;50.940;6.888;2023-08-21T12:11:36;12.00;;;8.17;;
3278;SDS011;1651;50.940;6.888;2023-08-21T12:14:03;11.10;;;8.00;;
3278;SDS011;1651;50.940;6.888;2023-08-21T12:16:29;7.53;;;6.70;;
3278;SDS011;1651;50.940;6.888;2023-08-21T12:18:58;9.57;;;6.57;;
3278;SDS011;1651;50.940;6.888;2023-08-21T12:21:24;9.93;;;6.50;;
3278;SDS011;1651;50.940;6.888;2023-08-21T12:23:51;6.70;;;6.00;;
3278;SDS011;1651;50.940;6.888;2023-08-21T12:26:17;7.90;;;6.43;;
3278;SDS011;1651;50.940;6.888;2023-08-21T12:28:46;7.00;;;6.30;;
3278;SDS011;1651;50.940;6.888;2023-08-21T12:31:12;8.07;;;6.17;;
3278;SDS011;1651;50.940;6.888;2023-08-21T12:33:38;7.33;;;6.33;;
3278;SDS011;1651;50.940;6.888;2023-08-21T12:36:04;9.90;;;6.17;;
3278;SDS011;1651;50.940;6.888;2023-08-21T12:38:30;9.87;;;6.30;;
3278;SDS011;1651;50.940;6.888;2023-08-21T12:40:58;7.80;;;5.83;;
3278;SDS011;1651;50.940;6.888;2023-08-21T12:43:24;7.50;;;5.27;;
3278;SDS011;1651;50.940;6.888;2023-08-21T12:45:50;5.87;;;5.10;;
3278;SDS011;1651;50.940;6.888;2023-08-21T12:48:18;9.10;;;5.37;;
3278;SDS011;1651;50.940;6.888;2023-08-21T12:50:44;5.33;;;4.90;;
3278;SDS011;1651;50.940;6.888;2023-08-21T12:53:10;9.63;;;5.20;;
3278;SDS011;1651;50.940;6.888;2023-08-21T12:55:36;8.00;;;5.23;;
3278;SDS011;1651;50.940;6.888;2023-08-21T12:58:04;8.33;;;5.07;;
3278;SDS011;1651;50.940;6.888;2023-08-21T13:00:30;6.87;;;4.80;;
3278;SDS011;1651;50.940;6.888;2023-08-21T13:02:57;7.27;;;5.07;;
3278;SDS011;1651;50.940;6.888;2023-08-21T13:05:23;7.53;;;4.97;;
3278;SDS011;1651;50.940;6.888;2023-08-21T13:07:49;6.63;;;4.47;;
3278;SDS011;1651;50.940;6.888;2023-08-21T13:10:16;9.33;;;4.30;;
3278;SDS011;1651;50.940;6.888;2023-08-21T13:12:42;7.50;;;4.30;;
3278;SDS011;1651;50.940;6.888;2023-08-21T13:15:09;4.97;;;4.33;;
3278;SDS011;1651;50.940;6.888;2023-08-21T13:17:38;7.97;;;4.67;;
3278;SDS011;1651;50.940;6.888;2023-08-21T13:20:05;5.47;;;4.73;;
3278;SDS011;1651;50.940;6.888;2023-08-21T13:22:48;7.87;;;4.43;;
3278;SDS011;1651;50.940;6.888;2023-08-21T13:25:18;10.00;;;4.50;;
3278;SDS011;1651;50.940;6.888;2023-08-21T13:27:48;4.80;;;4.20;;
3278;SDS011;1651;50.940;6.888;2023-08-21T13:30:15;5.33;;;4.37;;
3278;SDS011;1651;50.940;6.888;2023-08-21T13:32:41;5.30;;;4.80;;
3278;SDS011;1651;50.940;6.888;2023-08-21T13:35:07;6.83;;;4.13;;
3278;SDS011;1651;50.940;6.888;2023-08-21T13:37:38;6.23;;;4.20;;
3278;SDS011;1651;50.940;6.888;2023-08-21T13:40:04;9.20;;;5.00;;
3278;SDS011;1651;50.940;6.888;2023-08-21T13:42:40;7.30;;;3.73;;
3278;SDS011;1651;50.940;6.888;2023-08-21T13:45:07;9.13;;;3.90;;
3278;SDS011;1651;50.940;6.888;2023-08-21T13:47:34;8.37;;;4.50;;
3278;SDS011;1651;50.940;6.888;2023-08-21T13:50:00;4.43;;;3.83;;
3278;SDS011;1651;50.940;6.888;2023-08-21T13:52:32;5.30;;;4.27;;
3278;SDS011;1651;50.940;6.888;2023-08-21T13:55:05;5.00;;;4.10;;
3278;SDS011;1651;50.940;6.888;2023-08-21T13:57:31;8.73;;;3.73;;
3278;SDS011;1651;50.940;6.888;2023-08-21T14:00:01;5.53;;;4.00;;
3278;SDS011;1651;50.940;6.888;2023-08-21T14:02:27;4.93;;;4.00;;
3278;SDS011;1651;50.940;6.888;2023-08-21T14:04:53;6.27;;;3.60;;
3278;SDS011;1651;50.940;6.888;2023-08-21T14:07:20;6.70;;;4.20;;
3278;SDS011;1651;50.940;6.888;2023-08-21T14:09:46;4.30;;;3.60;;
3278;SDS011;1651;50.940;6.888;2023-08-21T14:12:12;5.50;;;4.17;;
3278;SDS011;1651;50.940;6.888;2023-08-21T14:14:38;6.60;;;4.10;;
3278;SDS011;1651;50.940;6.888;2023-08-21T14:17:05;4.80;;;3.70;;
3278;SDS011;1651;50.940;6.888;2023-08-21T14:19:31;5.33;;;3.80;;
3278;SDS011;1651;50.940;6.888;2023-08-21T14:21:57;5.70;;;3.60;;
3278;SDS011;1651;50.940;6.888;2023-08-21T14:24:24;8.43;;;3.80;;
3278;SDS011;1651;50.940;6.888;2023-08-21T14:26:50;8.33;;;4.50;;
3278;SDS011;1651;50.940;6.888;2023-08-21T14:29:16;5.40;;;3.53;;
3278;SDS011;1651;50.940;6.888;2023-08-21T14:31:42;5.37;;;3.97;;
3278;SDS011;1651;50.940;6.888;2023-08-21T14:34:08;4.00;;;3.50;;
3278;SDS011;1651;50.940;6.888;2023-08-21T14:36:34;5.97;;;3.90;;
3278;SDS011;1651;50.940;6.888;2023-08-21T14:39:00;3.70;;;3.07;;
3278;SDS011;1651;50.940;6.888;2023-08-21T14:41:26;3.47;;;3.17;;
3278;SDS011;1651;50.940;6.888;2023-08-21T14:43:52;7.90;;;3.47;;
3278;SDS011;1651;50.940;6.888;2023-08-21T14:46:19;6.73;;;3.30;;
3278;SDS011;1651;50.940;6.888;2023-08-21T14:48:45;5.37;;;3.80;;
3278;SDS011;1651;50.940;6.888;2023-08-21T14:51:12;5.73;;;3.23;;
3278;SDS011;1651;50.940;6.888;2023-08-21T14:53:38;4.90;;;3.40;;
3278;SDS011;1651;50.940;6.888;2023-08-21T14:56:04;6.20;;;3.60;;
3278;SDS011;1651;50.940;6.888;2023-08-21T14:58:31;5.97;;;3.67;;
3278;SDS011;1651;50.940;6.888;2023-08-21T15:00:57;6.03;;;3.77;;
3278;SDS011;1651;50.940;6.888;2023-08-21T15:03:23;4.70;;;3.03;;
3278;SDS011;1651;50.940;6.888;2023-08-21T15:05:49;2.90;;;2.60;;
3278;SDS011;1651;50.940;6.888;2023-08-21T15:08:16;6.70;;;3.87;;
3278;SDS011;1651;50.940;6.888;2023-08-21T15:10:42;5.77;;;2.70;;
3278;SDS011;1651;50.940;6.888;2023-08-21T15:13:08;6.20;;;2.77;;
3278;SDS011;1651;50.940;6.888;2023-08-21T15:15:34;5.47;;;2.47;;
3278;SDS011;1651;50.940;6.888;2023-08-21T15:18:00;4.50;;;3.20;;
3278;SDS011;1651;50.940;6.888;2023-08-21T15:20:26;6.10;;;2.80;;
3278;SDS011;1651;50.940;6.888;2023-08-21T15:22:52;3.93;;;2.70;;
3278;SDS011;1651;50.940;6.888;2023-08-21T15:25:18;4.17;;;2.80;;
3278;SDS011;1651;50.940;6.888;2023-08-21T15:27:45;3.50;;;2.47;;
3278;SDS011;1651;50.940;6.888;2023-08-21T15:30:11;3.97;;;2.93;;
3278;SDS011;1651;50.940;6.888;2023-08-21T15:32:37;7.30;;;3.23;;